createdAt,value
2019-01-19T00:00:58.235Z,99.90
2019-01-19T00:03:40.892Z,99.90
2019-01-19T00:06:22.795Z,99.90
2019-01-19T00:09:05.862Z,99.90
2019-01-19T00:11:47.001Z,99.90
2019-01-19T00:14:28.822Z,99.90
2019-01-19T00:17:09.888Z,99.90
2019-01-19T00:19:50.652Z,99.90
2019-01-19T00:22:31.592Z,99.90
2019-01-19T00:25:13.101Z,99.90
2019-01-19T00:27:54.031Z,99.90
2019-01-19T00:34:05.043Z,99.90
2019-01-19T00:36:35.772Z,99.90
2019-01-19T00:39:16.841Z,99.90
2019-01-19T00:41:58.432Z,99.90
2019-01-19T00:44:41.602Z,99.90
2019-01-19T00:47:23.792Z,99.90
2019-01-19T00:50:05.442Z,99.90
2019-01-19T00:52:47.773Z,99.90
2019-01-19T00:55:31.352Z,99.90
2019-01-19T00:58:11.893Z,99.90
2019-01-19T01:00:55.048Z,99.90
2019-01-19T01:03:36.307Z,99.90
2019-01-19T01:06:18.277Z,99.90
2019-01-19T01:08:58.993Z,99.90
2019-01-19T01:11:42.661Z,99.90
2019-01-19T01:14:23.202Z,99.90
2019-01-19T01:17:05.362Z,99.90
2019-01-19T01:19:46.512Z,99.90
2019-01-19T01:22:27.322Z,99.90
2019-01-19T01:28:19.102Z,99.90
2019-01-19T01:31:01.892Z,99.90
2019-01-19T01:33:43.602Z,99.90
2019-01-19T01:36:25.342Z,99.90
2019-01-19T01:39:06.482Z,99.90
2019-01-19T01:41:47.223Z,99.90
2019-01-19T01:44:28.122Z,99.90
2019-01-19T01:47:36.122Z,99.90
2019-01-19T01:50:43.654Z,99.90
2019-01-19T01:53:25.072Z,99.90
2019-01-19T01:56:05.832Z,99.90
2019-01-19T01:58:46.925Z,99.90
2019-01-19T02:01:28.005Z,99.90
2019-01-19T02:07:14.730Z,99.90
2019-01-19T02:09:55.304Z,99.90
2019-01-19T02:13:02.824Z,99.90
2019-01-19T02:15:44.020Z,99.90
2019-01-19T02:18:25.412Z,99.90
2019-01-19T02:21:06.558Z,99.90
2019-01-19T02:23:47.720Z,99.90
2019-01-19T02:26:29.201Z,99.90
2019-01-19T02:29:09.982Z,99.90
2019-01-19T02:31:50.999Z,99.90
2019-01-19T02:34:31.567Z,99.90
2019-01-19T02:37:12.906Z,99.90
2019-01-19T02:39:53.659Z,99.90
2019-01-19T02:42:34.502Z,99.90
2019-01-19T02:45:18.416Z,99.90
2019-01-19T02:47:59.399Z,99.90
2019-01-19T02:50:45.851Z,99.90
2019-01-19T02:53:26.313Z,99.90
2019-01-19T02:56:06.984Z,99.90
2019-01-19T02:58:48.022Z,99.90
2019-01-19T03:01:30.513Z,99.90
2019-01-19T03:04:11.666Z,99.90
2019-01-19T03:06:52.922Z,99.90
2019-01-19T03:09:35.488Z,99.90
2019-01-19T03:12:51.823Z,99.90
2019-01-19T03:15:59.218Z,99.90
2019-01-19T03:18:40.032Z,99.90
2019-01-19T03:21:22.926Z,99.90
2019-01-19T03:24:04.043Z,99.90
2019-01-19T03:26:44.589Z,99.90
2019-01-19T03:29:25.515Z,99.90
2019-01-19T03:32:06.567Z,99.90
2019-01-19T03:34:47.166Z,99.90
2019-01-19T03:37:31.495Z,99.90
2019-01-19T03:40:11.362Z,99.90
2019-01-19T03:42:52.182Z,99.90
2019-01-19T03:45:33.704Z,99.90
2019-01-19T03:48:14.912Z,99.90
2019-01-19T03:50:55.758Z,99.90
2019-01-19T04:03:06.836Z,99.90
2019-01-19T04:05:48.291Z,99.90
2019-01-19T04:08:55.850Z,99.90
2019-01-19T04:12:04.288Z,99.90
2019-01-19T04:14:45.904Z,99.90
2019-01-19T04:17:28.256Z,99.90
2019-01-19T04:20:37.088Z,99.90
2019-01-19T04:23:25.402Z,99.90
2019-01-19T04:26:06.762Z,99.90
2019-01-19T04:28:47.932Z,99.90
2019-01-19T04:31:29.502Z,99.90
2019-01-19T04:34:11.042Z,99.90
2019-01-19T04:36:52.474Z,99.90
2019-01-19T04:39:33.134Z,99.90
2019-01-19T04:42:14.558Z,99.90
2019-01-19T04:44:56.022Z,99.90
2019-01-19T04:47:37.310Z,99.90
2019-01-19T04:50:18.295Z,99.90
2019-01-19T04:52:59.449Z,99.90
2019-01-19T04:55:40.207Z,99.90
2019-01-19T04:58:22.247Z,99.90
2019-01-19T05:07:11.003Z,99.90
2019-01-19T05:09:53.818Z,99.90
2019-01-19T05:12:36.156Z,99.90
2019-01-19T05:15:16.753Z,99.90
2019-01-19T05:17:57.757Z,99.90
2019-01-19T05:20:39.840Z,99.90
2019-01-19T05:23:23.658Z,99.90
2019-01-19T05:26:04.258Z,99.90
2019-01-19T05:28:45.666Z,99.90
2019-01-19T05:31:26.441Z,99.90
2019-01-19T05:34:07.365Z,99.90
2019-01-19T05:36:49.958Z,99.90
2019-01-19T05:39:30.832Z,99.90
2019-01-19T05:42:39.616Z,99.90
2019-01-19T05:45:27.881Z,99.90
2019-01-19T05:48:09.044Z,99.90
2019-01-19T05:50:51.973Z,99.90
2019-01-19T05:53:33.012Z,99.90
2019-01-19T05:56:14.892Z,99.90
2019-01-19T05:58:56.084Z,99.90
2019-01-19T06:01:36.952Z,99.90
2019-01-19T06:04:18.163Z,99.90
2019-01-19T06:06:59.344Z,99.90
2019-01-19T06:09:40.628Z,99.90
2019-01-19T06:12:24.389Z,99.90
2019-01-19T06:15:06.083Z,99.90
2019-01-19T06:17:47.142Z,99.90
2019-01-19T06:20:28.713Z,99.90
2019-01-19T06:26:12.393Z,99.90
2019-01-19T06:28:53.532Z,99.90
2019-01-19T06:31:35.173Z,99.90
2019-01-19T06:34:16.352Z,99.90
2019-01-19T06:36:56.935Z,99.90
2019-01-19T06:39:37.989Z,99.90
2019-01-19T06:42:18.852Z,99.90
2019-01-19T06:44:59.884Z,99.90
2019-01-19T06:47:43.104Z,99.90
2019-01-19T06:50:24.495Z,99.90
2019-01-19T06:53:05.892Z,99.90
2019-01-19T06:55:47.313Z,99.90
2019-01-19T06:58:31.283Z,99.90
2019-01-19T07:01:12.545Z,99.90
2019-01-19T07:03:54.902Z,99.90
2019-01-19T07:06:37.974Z,99.90
2019-01-19T07:09:18.779Z,99.90
2019-01-19T07:11:59.895Z,99.90
2019-01-19T07:14:42.754Z,99.90
2019-01-19T07:17:24.066Z,99.90
2019-01-19T07:20:07.372Z,99.90
2019-01-19T07:22:48.956Z,99.90
2019-01-19T07:25:30.048Z,99.90
2019-01-19T07:31:16.872Z,99.90
2019-01-19T07:33:59.452Z,99.90
2019-01-19T07:36:40.652Z,99.90
2019-01-19T07:39:22.152Z,99.90
2019-01-19T07:42:04.219Z,99.90
2019-01-19T07:44:45.552Z,99.90
2019-01-19T07:47:27.873Z,99.90
2019-01-19T07:50:09.042Z,99.90
2019-01-19T07:55:40.336Z,99.90
2019-01-19T07:58:21.262Z,99.90
2019-01-19T08:01:02.593Z,99.90
2019-01-19T08:03:47.770Z,99.90
2019-01-19T08:06:28.589Z,99.90
2019-01-19T08:08:57.451Z,99.90
2019-01-19T08:11:45.917Z,99.90
2019-01-19T08:17:28.268Z,99.90
2019-01-19T08:20:11.322Z,99.90
2019-01-19T08:22:52.686Z,99.90
2019-01-19T08:25:33.591Z,99.90
2019-01-19T08:28:14.944Z,99.90
2019-01-19T08:31:44.245Z,99.90
2019-01-19T08:33:57.304Z,99.90
2019-01-19T08:36:38.232Z,99.90
2019-01-19T08:39:19.002Z,99.90
2019-01-19T08:42:00.402Z,99.90
2019-01-19T08:44:42.734Z,99.90
2019-01-19T08:47:25.186Z,99.90
2019-01-19T08:50:06.666Z,99.90
2019-01-19T08:52:48.632Z,99.90
2019-01-19T08:55:17.852Z,99.90
2019-01-19T08:58:06.200Z,99.90
2019-01-19T09:01:08.706Z,99.90
2019-01-19T09:03:40.470Z,99.90
2019-01-19T09:06:22.645Z,97.70
2019-01-19T09:09:04.536Z,98.20
2019-01-19T09:11:46.010Z,98.20
2019-01-19T09:14:28.370Z,98.70
2019-01-19T09:16:58.197Z,98.10
2019-01-19T09:19:49.596Z,96.60
2019-01-19T09:22:32.428Z,94.80
2019-01-19T09:25:14.200Z,95.50
2019-01-19T09:27:55.469Z,95.20
2019-01-19T09:31:04.214Z,93.60
2019-01-19T09:33:53.249Z,93.30
2019-01-19T09:36:34.422Z,93.10
2019-01-19T09:39:16.284Z,92.90
2019-01-19T09:41:57.357Z,93.20
2019-01-19T09:47:27.370Z,92.40
2019-01-19T09:50:08.908Z,93.00
2019-01-19T09:53:24.059Z,91.60
2019-01-19T09:55:50.672Z,90.80
2019-01-19T09:58:33.122Z,90.90
2019-01-19T10:01:14.242Z,90.40
2019-01-19T10:07:07.452Z,90.70
2019-01-19T10:09:49.483Z,87.30
2019-01-19T10:12:31.937Z,89.60
2019-01-19T10:15:13.268Z,90.80
2019-01-19T10:17:54.540Z,88.20
2019-01-19T10:20:44.114Z,89.40
2019-01-19T10:23:25.956Z,89.00
2019-01-19T10:26:28.896Z,90.30
2019-01-19T10:29:18.790Z,89.80
2019-01-19T10:31:45.742Z,87.40
2019-01-19T10:34:27.601Z,85.80
2019-01-19T10:37:09.297Z,88.50
2019-01-19T10:39:50.762Z,89.00
2019-01-19T10:42:32.622Z,90.10
2019-01-19T10:45:14.802Z,89.50
2019-01-19T10:47:58.182Z,90.70
2019-01-19T10:50:39.458Z,90.60
2019-01-19T10:53:20.828Z,87.20
2019-01-19T10:56:02.907Z,88.40
2019-01-19T11:01:55.864Z,89.00
2019-01-19T11:04:38.944Z,88.30
2019-01-19T11:07:19.812Z,87.00
2019-01-19T11:09:48.884Z,88.00
2019-01-19T11:15:39.361Z,88.20
2019-01-19T11:18:20.009Z,89.00
2019-01-19T11:21:01.934Z,87.50
2019-01-19T11:26:46.567Z,87.20
2019-01-19T11:29:27.968Z,87.90
2019-01-19T11:35:17.036Z,88.20
2019-01-19T11:38:00.218Z,87.50
2019-01-19T11:40:43.992Z,89.10
2019-01-19T11:43:25.963Z,87.60
2019-01-19T11:46:08.121Z,89.20
2019-01-19T11:48:49.452Z,88.70
2019-01-19T11:51:32.832Z,88.90
2019-01-19T11:54:15.352Z,89.60
2019-01-19T11:59:39.732Z,87.90
2019-01-19T12:03:02.903Z,87.30
2019-01-19T12:05:33.275Z,87.20
2019-01-19T12:08:19.505Z,90.40
2019-01-19T12:14:09.158Z,90.30
2019-01-19T12:16:50.368Z,89.20
2019-01-19T12:19:31.276Z,88.20
2019-01-19T12:22:12.000Z,87.70
2019-01-19T12:24:53.255Z,87.70
2019-01-19T12:27:33.968Z,87.90
2019-01-19T12:30:14.842Z,89.50
2019-01-19T12:32:56.285Z,86.20
2019-01-19T12:38:29.277Z,86.70
2019-01-19T12:41:10.462Z,87.00
2019-01-19T12:43:52.193Z,88.80
2019-01-19T12:46:32.840Z,88.90
2019-01-19T12:49:13.844Z,89.20
2019-01-19T12:51:55.385Z,88.70
2019-01-19T12:54:24.302Z,90.30
2019-01-19T12:57:12.590Z,91.10
2019-01-19T12:59:53.579Z,90.40
2019-01-19T13:02:35.556Z,90.40
2019-01-19T13:05:20.924Z,90.70
2019-01-19T13:08:04.882Z,90.80
2019-01-19T13:10:45.876Z,90.70
2019-01-19T13:13:27.303Z,91.00
2019-01-19T13:16:08.740Z,90.70
2019-01-19T13:28:02.211Z,91.60
2019-01-19T13:30:43.191Z,91.70
2019-01-19T13:33:24.664Z,91.60
2019-01-19T13:36:07.171Z,91.90
2019-01-19T13:38:54.212Z,91.80
2019-01-19T13:41:35.111Z,91.80
2019-01-19T13:44:17.082Z,92.20
2019-01-19T13:46:58.009Z,91.90
2019-01-19T13:49:39.254Z,91.60
2019-01-19T13:52:21.181Z,91.60
2019-01-19T13:58:06.910Z,92.00
2019-01-19T14:00:47.770Z,92.20
2019-01-19T14:03:30.139Z,92.70
2019-01-19T14:06:12.450Z,93.20
2019-01-19T14:08:53.082Z,93.60
2019-01-19T14:11:34.154Z,93.80
2019-01-19T14:14:14.725Z,94.30
2019-01-19T14:16:55.854Z,94.30
2019-01-19T14:20:03.428Z,94.40
2019-01-19T14:26:13.447Z,94.60
2019-01-19T14:28:54.675Z,94.70
2019-01-19T14:32:14.509Z,94.90
2019-01-19T14:34:24.626Z,94.90
2019-01-19T14:37:05.560Z,95.40
2019-01-19T14:42:51.722Z,95.60
2019-01-19T14:45:35.262Z,95.90
2019-01-19T14:48:18.135Z,96.10
2019-01-19T14:51:01.182Z,96.40
2019-01-19T14:53:42.174Z,96.50
2019-01-19T14:56:24.101Z,96.40
2019-01-19T14:59:05.611Z,97.20
2019-01-19T15:01:46.522Z,97.20
2019-01-19T15:04:29.554Z,97.20
2019-01-19T15:07:11.876Z,97.50
2019-01-19T15:09:53.330Z,97.50
2019-01-19T15:12:34.793Z,97.70
2019-01-19T15:15:15.812Z,98.00
2019-01-19T15:18:24.941Z,98.30
2019-01-19T15:21:05.665Z,98.90
2019-01-19T15:23:47.729Z,99.00
2019-01-19T15:26:30.580Z,99.30
2019-01-19T15:29:11.682Z,99.60
2019-01-19T15:32:17.098Z,99.90
2019-01-19T15:34:41.482Z,99.90
2019-01-19T15:37:24.205Z,99.90
2019-01-19T15:40:05.803Z,99.90
2019-01-19T15:42:47.598Z,99.90
2019-01-19T15:45:29.395Z,99.90
2019-01-19T15:48:11.672Z,99.90
2019-01-19T15:50:52.538Z,99.90
2019-01-19T15:53:33.447Z,99.90
2019-01-19T15:56:17.956Z,99.90
2019-01-19T15:58:59.144Z,99.90
2019-01-19T16:01:40.760Z,99.90
2019-01-19T16:04:22.288Z,99.90
2019-01-19T16:10:48.968Z,99.90
2019-01-19T16:14:14.919Z,99.90
2019-01-19T16:16:40.986Z,99.90
2019-01-19T16:19:23.210Z,99.90
2019-01-19T16:22:04.261Z,99.90
2019-01-19T16:24:48.190Z,99.90
2019-01-19T16:27:30.259Z,99.90
2019-01-19T16:30:12.155Z,99.90
2019-01-19T16:32:53.728Z,99.90
2019-01-19T16:35:36.314Z,99.90
2019-01-19T16:38:18.313Z,99.90
2019-01-19T16:40:59.341Z,99.90
2019-01-19T16:43:41.156Z,99.90
2019-01-19T16:46:23.192Z,99.90
2019-01-19T16:49:04.408Z,99.90
2019-01-19T16:51:48.215Z,99.90
2019-01-19T16:54:30.018Z,99.90
2019-01-19T16:57:13.778Z,99.90
2019-01-19T16:59:56.232Z,99.90
2019-01-19T17:02:37.498Z,99.90
2019-01-19T17:05:18.903Z,99.90
2019-01-19T17:11:19.387Z,99.90
2019-01-19T17:14:01.069Z,99.90
2019-01-19T17:16:43.292Z,99.90
2019-01-19T17:19:25.508Z,99.90
2019-01-19T17:22:07.256Z,99.90
2019-01-19T17:24:48.872Z,99.90
2019-01-19T17:27:30.533Z,99.90
2019-01-19T17:30:11.973Z,99.90
2019-01-19T17:32:53.874Z,99.90
2019-01-19T17:35:35.515Z,99.90
2019-01-19T17:38:44.606Z,99.90
2019-01-19T17:41:52.178Z,99.90
2019-01-19T17:44:33.334Z,99.90
2019-01-19T17:47:17.278Z,99.90
2019-01-19T17:50:00.734Z,99.90
2019-01-19T17:52:43.898Z,99.90
2019-01-19T17:55:25.149Z,99.90
2019-01-19T17:58:08.852Z,99.90
2019-01-19T18:10:34.002Z,99.90
2019-01-19T18:13:02.654Z,99.90
2019-01-19T18:15:44.075Z,99.90
2019-01-19T18:18:24.852Z,99.90
2019-01-19T18:21:06.507Z,99.90
2019-01-19T18:23:56.228Z,99.90
2019-01-19T18:26:37.461Z,99.90
2019-01-19T18:29:19.477Z,99.90
2019-01-19T18:32:00.380Z,99.90
2019-01-19T18:34:41.365Z,99.90
2019-01-19T18:37:22.887Z,99.90
2019-01-19T18:40:03.761Z,99.90
2019-01-19T18:42:47.049Z,99.90
2019-01-19T18:45:29.746Z,99.90
2019-01-19T18:48:10.781Z,99.90
2019-01-19T18:50:51.933Z,99.90
2019-01-19T18:53:34.107Z,99.90
2019-01-19T18:56:17.579Z,99.90
2019-01-19T18:58:58.761Z,99.90
2019-01-19T19:01:40.299Z,99.90
2019-01-19T19:04:21.808Z,99.90
2019-01-19T19:07:04.971Z,99.90
2019-01-19T19:09:45.899Z,99.90
2019-01-19T19:12:26.920Z,99.90
2019-01-19T19:15:08.473Z,99.90
2019-01-19T19:21:17.572Z,99.90
2019-01-19T19:23:58.661Z,99.90
2019-01-19T19:26:39.663Z,99.90
2019-01-19T19:29:21.046Z,99.90
2019-01-19T19:32:04.629Z,99.90
2019-01-19T19:34:46.317Z,99.90
2019-01-19T19:37:27.639Z,99.90
2019-01-19T19:40:09.935Z,99.90
2019-01-19T19:42:51.353Z,99.90
2019-01-19T19:45:33.203Z,99.90
2019-01-19T19:48:15.004Z,99.90
2019-01-19T19:50:58.833Z,99.90
2019-01-19T19:53:40.193Z,99.90
2019-01-19T19:56:22.243Z,99.90
2019-01-19T19:59:03.814Z,99.90
2019-01-19T20:01:48.790Z,99.90
2019-01-19T20:07:26.898Z,99.90
2019-01-19T20:09:56.474Z,99.90
2019-01-19T20:18:32.613Z,99.90
2019-01-19T20:21:14.522Z,99.90
2019-01-19T20:23:58.353Z,99.90
2019-01-19T20:26:39.703Z,99.90
2019-01-19T20:29:23.083Z,99.90
2019-01-19T20:32:04.632Z,99.90
2019-01-19T20:34:45.933Z,99.90
2019-01-19T20:37:27.636Z,99.90
2019-01-19T20:40:09.122Z,99.90
2019-01-19T20:42:50.563Z,99.90
2019-01-19T20:45:31.825Z,99.90
2019-01-19T20:48:14.433Z,99.90
2019-01-19T20:50:55.793Z,99.90
2019-01-19T20:53:38.673Z,99.90
2019-01-19T20:56:15.343Z,99.90
2019-01-19T20:58:57.663Z,99.90
2019-01-19T21:01:39.684Z,99.90
2019-01-19T21:04:20.963Z,99.90
2019-01-19T21:06:50.184Z,99.90
2019-01-19T21:09:38.983Z,99.90
2019-01-19T21:12:20.252Z,99.90
2019-01-19T21:15:03.053Z,99.90
2019-01-19T21:17:44.463Z,99.90
2019-01-19T21:20:25.191Z,99.90
2019-01-19T21:23:06.463Z,99.90
2019-01-19T21:25:48.872Z,99.90
2019-01-19T21:28:30.452Z,99.90
2019-01-19T21:31:11.335Z,99.90
2019-01-19T21:33:52.843Z,99.90
2019-01-19T21:36:36.603Z,99.90
2019-01-19T21:39:45.113Z,99.90
2019-01-19T21:42:33.593Z,99.90
2019-01-19T21:45:16.003Z,99.90
2019-01-19T21:47:57.873Z,99.90
2019-01-19T21:50:38.933Z,99.90
2019-01-19T21:53:20.173Z,99.90
2019-01-19T21:56:03.033Z,99.90
2019-01-19T21:58:44.423Z,99.90
2019-01-19T22:01:25.593Z,99.90
2019-01-19T22:04:07.223Z,99.90
2019-01-19T22:06:48.595Z,99.90
2019-01-19T22:12:32.364Z,99.90
2019-01-19T22:15:13.655Z,99.90
2019-01-19T22:17:55.193Z,99.90
2019-01-19T22:20:36.673Z,99.90
2019-01-19T22:23:18.595Z,99.90
2019-01-19T22:26:00.203Z,99.90
2019-01-19T22:28:41.653Z,99.90
2019-01-19T22:31:24.233Z,99.90
2019-01-19T22:34:05.682Z,99.90
2019-01-19T22:36:47.017Z,99.90
2019-01-19T22:39:27.811Z,99.90
2019-01-19T22:42:09.119Z,99.90
2019-01-19T22:44:38.053Z,99.90
2019-01-19T22:47:26.661Z,99.90
2019-01-19T22:59:14.057Z,99.90
2019-01-19T23:01:55.080Z,99.90
2019-01-19T23:04:37.812Z,99.90
2019-01-19T23:07:18.905Z,99.90
2019-01-19T23:10:00.194Z,99.90
2019-01-19T23:12:41.453Z,99.90
2019-01-19T23:15:23.493Z,99.90
2019-01-19T23:18:04.683Z,99.90
2019-01-19T23:20:46.513Z,99.90
2019-01-19T23:23:28.543Z,99.90
2019-01-19T23:26:39.733Z,99.90
2019-01-19T23:29:28.283Z,99.90
2019-01-19T23:32:10.663Z,99.90
2019-01-19T23:34:57.231Z,99.90
2019-01-19T23:40:24.233Z,99.90
2019-01-19T23:43:05.663Z,99.90
2019-01-19T23:45:47.243Z,99.90
2019-01-19T23:48:30.363Z,99.90
2019-01-19T23:51:11.903Z,99.90
2019-01-19T23:53:53.803Z,99.90
2019-01-19T23:56:35.263Z,99.90
2019-01-19T23:59:17.484Z,99.90
